Time;durP1;ratioP1;P1;durP2;ratioP2;P2;SDS_P1;SDS_P2;PMS_P1;PMS_P2;Temp;Humidity;BMP_temperature;BMP_pressure;BME280_temperature;BME280_humidity;BME280_pressure;Samples;Min_cycle;Max_cycle;Signal;HPM_P1;HPM_P2
2022/05/11 00:02:24;;;;;;;143.05;52.22;;;;;;;13.28;69.60;95301.50;5042141;28;20040;-77
2022/05/11 00:04:50;;;;;;;134.98;51.75;;;;;;;13.27;69.42;95301.75;5060263;28;20037;-77
2022/05/11 00:07:15;;;;;;;101.63;39.55;;;;;;;13.24;69.56;95299.59;5044006;28;20029;-77
2022/05/11 00:09:41;;;;;;;81.30;32.47;;;;;;;13.16;69.66;95304.13;5047460;28;20047;-76
2022/05/11 00:12:08;;;;;;;116.63;45.55;;;;;;;13.11;69.98;95300.66;5060643;28;20550;-77
2022/05/11 00:14:34;;;;;;;115.38;49.45;;;;;;;13.10;69.75;95299.88;5060677;28;20032;-77
2022/05/11 00:16:59;;;;;;;98.13;40.33;;;;;;;13.10;69.72;95289.44;5059965;28;20423;-77
2022/05/11 00:19:25;;;;;;;94.63;39.92;;;;;;;13.09;69.12;95287.84;5061110;28;20037;-77
2022/05/11 00:21:51;;;;;;;94.55;40.58;;;;;;;13.07;69.38;95284.69;5060054;28;20068;-76
2022/05/11 00:24:16;;;;;;;94.38;38.20;;;;;;;13.03;69.56;95288.78;5060739;28;20965;-76
2022/05/11 00:26:42;;;;;;;90.10;36.58;;;;;;;12.99;69.86;95277.22;5060162;28;20037;-77
2022/05/11 00:29:07;;;;;;;82.00;32.58;;;;;;;13.01;69.68;95284.81;5058392;28;20041;-76
2022/05/11 00:31:33;;;;;;;61.95;27.27;;;;;;;12.98;69.70;95280.06;5041791;28;20052;-76
2022/05/11 00:33:59;;;;;;;54.65;24.70;;;;;;;12.96;69.23;95282.91;5058270;28;20040;-76
2022/05/11 00:36:24;;;;;;;39.83;16.92;;;;;;;12.93;69.96;95278.16;5059747;28;20039;-76
2022/05/11 00:38:50;;;;;;;29.92;12.35;;;;;;;12.90;70.27;95274.22;5042513;28;20029;-76
2022/05/11 00:41:15;;;;;;;12.73;9.35;;;;;;;12.90;71.04;95263.75;5061980;28;20435;-75
2022/05/11 00:43:43;;;;;;;24.90;11.30;;;;;;;12.91;70.58;95260.13;5065352;28;20043;-76
2022/05/11 00:46:46;;;;;;;28.67;14.75;;;;;;;12.85;70.44;95266.31;5060961;28;20432;-76
2022/05/11 00:49:34;;;;;;;48.33;20.33;;;;;;;12.80;70.56;95273.22;5059513;28;20048;-77
2022/05/11 00:52:03;;;;;;;63.05;22.17;;;;;;;12.77;70.76;95273.69;5058539;28;20049;-76
2022/05/11 00:54:29;;;;;;;74.55;28.27;;;;;;;12.74;70.21;95279.38;5059606;28;20049;-77
2022/05/11 00:56:57;;;;;;;68.05;27.95;;;;;;;12.72;70.00;95282.22;5058782;28;20435;-77
2022/05/11 00:59:25;;;;;;;91.13;33.63;;;;;;;12.69;69.65;95282.72;5058222;28;20028;-77
2022/05/11 01:01:50;;;;;;;79.13;31.88;;;;;;;12.66;69.30;95287.56;5040909;28;20028;-77
2022/05/11 01:04:20;;;;;;;84.20;32.72;;;;;;;12.63;69.25;95279.19;5041837;28;20078;-77
2022/05/11 01:06:45;;;;;;;76.10;28.85;;;;;;;12.61;69.01;95289.06;5044322;28;20036;-76
2022/05/11 01:09:12;;;;;;;118.20;45.60;;;;;;;12.57;68.85;95290.56;5029272;28;20137;-78
2022/05/11 01:11:49;;;;;;;110.40;38.45;;;;;;;12.55;69.48;95302.25;5041665;28;20105;-77
2022/05/11 01:14:17;;;;;;;77.50;31.50;;;;;;;12.53;69.08;95294.66;5040829;28;20036;-77
2022/05/11 01:16:43;;;;;;;73.93;34.10;;;;;;;12.49;68.78;95296.13;5056968;28;20045;-76
2022/05/11 01:19:12;;;;;;;75.88;27.17;;;;;;;12.48;68.77;95286.72;5059102;28;20040;-76
2022/05/11 01:22:03;;;;;;;85.63;33.20;;;;;;;12.46;68.91;95287.97;5058078;28;20035;-77
2022/05/11 01:24:40;;;;;;;89.57;31.98;;;;;;;12.43;68.90;95289.25;5058132;28;20040;-76
2022/05/11 01:27:26;;;;;;;68.10;28.58;;;;;;;12.39;68.90;95282.91;5057926;28;20051;-77
2022/05/11 01:29:57;;;;;;;53.03;22.55;;;;;;;12.35;68.79;95286.97;5041674;28;20043;-77
2022/05/11 01:32:34;;;;;;;46.55;20.08;;;;;;;12.38;69.13;95281.31;5057237;28;20132;-76
2022/05/11 01:35:20;;;;;;;42.10;16.70;;;;;;;12.40;69.56;95284.50;5042278;28;20049;-76
2022/05/11 01:37:54;;;;;;;27.90;14.70;;;;;;;12.40;69.79;95283.69;5072067;23;20056;-77
2022/05/11 01:40:20;;;;;;;36.08;13.68;;;;;;;12.42;69.43;95289.47;5077948;28;20047;-77
2022/05/11 01:42:49;;;;;;;35.85;13.52;;;;;;;12.37;69.07;95282.34;5062390;28;20029;-76
2022/05/11 01:45:14;;;;;;;24.85;13.25;;;;;;;12.33;69.29;95283.81;5041721;28;20041;-76
2022/05/11 01:47:40;;;;;;;43.28;17.55;;;;;;;12.30;69.00;95284.28;5056463;28;20035;-77
2022/05/11 01:50:05;;;;;;;70.35;17.00;;;;;;;12.27;69.14;95289.97;5059250;28;20037;-77
2022/05/11 01:52:31;;;;;;;44.85;13.73;;;;;;;12.23;68.94;95289.63;5058389;28;20075;-77
2022/05/11 01:54:56;;;;;;;36.10;14.52;;;;;;;12.19;69.04;95278.06;5057726;28;20045;-77
2022/05/11 01:57:22;;;;;;;40.90;13.88;;;;;;;12.15;69.35;95276.16;5058687;28;20041;-76
2022/05/11 01:59:47;;;;;;;29.50;14.13;;;;;;;12.11;69.55;95286.25;5057566;28;20052;-77
2022/05/11 02:02:19;;;;;;;55.22;17.48;;;;;;;12.11;69.58;95277.63;5058548;28;20415;-76
2022/05/11 02:10:12;;;;;;;64.07;25.80;;;;;;;12.00;69.24;95289.66;5058549;28;20047;-76
2022/05/11 02:12:38;;;;;;;76.05;24.63;;;;;;;11.98;69.07;95282.06;5057807;28;20040;-76
2022/05/11 02:15:07;;;;;;;59.00;22.65;;;;;;;11.94;69.06;95280.94;5049371;28;20101;-76
2022/05/11 02:17:32;;;;;;;48.35;20.45;;;;;;;11.88;69.15;95281.06;5056653;28;20058;-76
2022/05/11 02:19:57;;;;;;;49.38;18.10;;;;;;;11.88;68.89;95284.47;5060988;28;20426;-76
2022/05/11 02:22:23;;;;;;;29.40;14.43;;;;;;;11.87;68.93;95289.88;5060506;28;20496;-76
2022/05/11 02:24:48;;;;;;;40.63;14.75;;;;;;;11.88;68.83;95286.28;5060886;28;20107;-77
2022/05/11 02:27:14;;;;;;;60.00;19.10;;;;;;;11.87;68.90;95276.84;5060338;28;20037;-76
2022/05/11 02:29:39;;;;;;;49.05;17.08;;;;;;;11.86;68.75;95272.66;5060885;28;20595;-76
2022/05/11 02:32:05;;;;;;;45.80;16.00;;;;;;;11.82;68.75;95280.16;5060269;28;20056;-76
2022/05/11 02:37:14;;;;;;;52.13;19.65;;;;;;;11.78;68.73;95275.59;5060270;28;20510;-76
2022/05/11 02:39:40;;;;;;;65.57;21.13;;;;;;;11.74;69.35;95275.28;5060646;28;20032;-77
2022/05/11 02:42:05;;;;;;;51.28;20.27;;;;;;;11.71;68.91;95280.91;5060189;28;20053;-77
2022/05/11 02:44:31;;;;;;;47.72;17.83;;;;;;;11.65;69.07;95272.19;5092828;23;20054;-77
2022/05/11 02:46:56;;;;;;;68.78;22.38;;;;;;;11.67;69.19;95274.56;5070365;28;20036;-76
2022/05/11 02:49:22;;;;;;;91.22;28.00;;;;;;;11.67;69.21;95279.78;5061861;28;20029;-77
2022/05/11 02:51:47;;;;;;;94.68;31.27;;;;;;;11.66;69.14;95280.81;5059849;28;20491;-76
2022/05/11 02:54:19;;;;;;;88.72;32.55;;;;;;;11.66;69.33;95286.03;5061544;28;20037;-76
2022/05/11 02:56:45;;;;;;;65.95;25.92;;;;;;;11.67;68.72;95285.00;5061810;28;20033;-76
2022/05/11 02:59:11;;;;;;;54.60;21.98;;;;;;;11.67;68.84;95285.78;5061267;28;20048;-76
2022/05/11 03:01:42;;;;;;;55.17;17.95;;;;;;;11.70;69.13;95292.34;5061270;28;20043;-76
2022/05/11 03:04:08;;;;;;;50.55;16.85;;;;;;;11.69;69.09;95295.97;5057858;28;20106;-76
2022/05/11 03:06:33;;;;;;;41.53;16.00;;;;;;;11.79;68.96;95296.25;5060302;28;20030;-76
2022/05/11 03:09:05;;;;;;;61.80;19.50;;;;;;;11.76;69.29;95299.28;5062407;28;20816;-76
2022/05/11 03:11:31;;;;;;;78.75;32.65;;;;;;;11.84;69.07;95293.75;5060700;28;20043;-76
2022/05/11 03:13:56;;;;;;;100.75;41.88;;;;;;;11.88;69.10;95300.13;5061111;28;20040;-76
2022/05/11 03:16:22;;;;;;;93.57;43.35;;;;;;;11.99;68.53;95306.31;5064328;28;20032;-75
2022/05/11 03:18:47;;;;;;;105.82;53.70;;;;;;;11.96;69.23;95310.19;5047334;28;20028;-76
2022/05/11 03:21:12;;;;;;;118.10;62.63;;;;;;;12.02;68.37;95309.25;5059910;28;20025;-75
2022/05/11 03:23:38;;;;;;;119.30;55.97;;;;;;;12.05;68.99;95312.44;5066671;28;20040;-76
2022/05/11 03:26:03;;;;;;;112.82;52.20;;;;;;;12.03;68.20;95315.25;5061741;28;20032;-76
2022/05/11 03:28:29;;;;;;;89.28;41.28;;;;;;;12.08;68.22;95310.19;5085316;28;20098;-76
2022/05/11 03:30:54;;;;;;;71.78;39.35;;;;;;;12.07;68.41;95315.63;5057664;28;20036;-75
2022/05/11 03:36:04;;;;;;;82.47;32.25;;;;;;;12.17;68.07;95321.03;5059337;28;20087;-76
2022/05/11 03:38:30;;;;;;;73.82;33.08;;;;;;;12.20;68.01;95307.53;5050549;28;20116;-75
2022/05/11 03:40:55;;;;;;;57.97;28.50;;;;;;;12.25;68.15;95312.88;5065518;28;20492;-75
2022/05/11 03:43:21;;;;;;;64.35;27.17;;;;;;;12.28;67.56;95312.41;5064840;28;20032;-75
2022/05/11 03:45:47;;;;;;;61.80;26.17;;;;;;;12.30;67.76;95318.97;5058653;28;20040;-76
2022/05/11 03:48:13;;;;;;;71.82;25.38;;;;;;;12.35;67.96;95318.28;5026868;28;20464;-76
2022/05/11 03:50:38;;;;;;;64.22;28.13;;;;;;;12.38;67.66;95319.66;5050976;28;20036;-76
2022/05/11 03:53:04;;;;;;;69.40;29.98;;;;;;;12.44;67.72;95322.13;5042609;28;20040;-75
2022/05/11 03:55:29;;;;;;;82.43;27.98;;;;;;;12.52;67.48;95319.16;5042470;28;20033;-75
2022/05/11 03:57:55;;;;;;;56.75;25.17;;;;;;;12.62;67.27;95331.59;5058667;28;20539;-75
2022/05/11 04:00:25;;;;;;;56.22;19.65;;;;;;;12.82;66.62;95323.38;5050950;28;20048;-75
2022/05/11 04:02:52;;;;;;;60.83;21.17;;;;;;;13.04;66.24;95323.53;5040012;28;20052;-74
2022/05/11 04:05:17;;;;;;;51.97;19.50;;;;;;;14.28;63.54;95320.75;5058817;28;20036;-74
2022/05/11 04:07:43;;;;;;;56.70;22.40;;;;;;;16.14;57.70;95312.34;5059097;28;20044;-76
2022/05/11 04:10:09;;;;;;;49.20;20.75;;;;;;;17.90;51.43;95312.28;5042542;28;20033;-76
2022/05/11 04:12:35;;;;;;;72.13;23.30;;;;;;;19.52;47.08;95323.19;5060364;28;20086;-77
2022/05/11 04:15:00;;;;;;;58.15;20.95;;;;;;;20.96;43.44;95318.88;5083074;28;20116;-75
2022/05/11 04:17:26;;;;;;;68.90;26.20;;;;;;;22.30;40.15;95321.91;5058682;28;20042;-76
2022/05/11 04:19:51;;;;;;;65.05;25.20;;;;;;;23.31;37.18;95330.47;5059024;28;20033;-76
2022/05/11 04:22:17;;;;;;;59.65;24.15;;;;;;;24.49;36.02;95331.13;5059960;28;20036;-75
2022/05/11 04:24:42;;;;;;;66.95;24.00;;;;;;;25.52;33.86;95333.22;5060504;28;20124;-74
2022/05/11 04:27:08;;;;;;;32.63;17.85;;;;;;;26.33;31.21;95337.81;5058094;28;20032;-78
2022/05/11 04:29:35;;;;;;;30.40;14.95;;;;;;;27.20;30.00;95335.59;5041693;28;20464;-75
2022/05/11 04:32:00;;;;;;;15.18;5.75;;;;;;;27.94;27.84;95340.19;5057409;28;20089;-75
2022/05/11 04:34:26;;;;;;;14.50;6.25;;;;;;;28.91;27.28;95333.50;5060106;28;20420;-75
2022/05/11 04:36:51;;;;;;;6.93;4.95;;;;;;;29.76;25.39;95341.38;5060032;28;20033;-76
2022/05/11 04:39:17;;;;;;;12.70;5.50;;;;;;;30.56;23.77;95335.03;5083823;28;20454;-77
2022/05/11 04:41:43;;;;;;;8.45;3.97;;;;;;;30.99;22.73;95333.41;5059323;28;20546;-79
2022/05/11 04:44:11;;;;;;;13.18;4.40;;;;;;;31.92;22.07;95345.03;5064624;28;20037;-80
2022/05/11 04:46:37;;;;;;;15.00;4.63;;;;;;;32.87;21.58;95354.38;5097640;28;20078;-82
2022/05/11 04:49:19;;;;;;;8.63;3.92;;;;;;;33.73;20.48;95341.00;5041449;28;20282;-84
2022/05/11 04:51:58;;;;;;;18.33;4.63;;;;;;;34.81;19.58;95340.94;5076028;28;20461;-82
2022/05/11 04:54:23;;;;;;;14.40;3.85;;;;;;;35.75;18.61;95336.50;5051636;28;20071;-82
2022/05/11 04:56:49;;;;;;;9.10;4.30;;;;;;;36.40;17.61;95342.16;5049292;28;20037;-85
2022/05/11 04:59:14;;;;;;;7.80;3.67;;;;;;;36.95;16.63;95334.47;5050389;28;20401;-84
2022/05/11 05:01:40;;;;;;;6.57;3.97;;;;;;;37.62;16.61;95349.06;5067898;28;20036;-85
2022/05/11 05:04:15;;;;;;;9.65;4.80;;;;;;;38.45;16.29;95345.59;5034996;28;20029;-84
2022/05/11 05:06:40;;;;;;;13.52;4.38;;;;;;;39.17;15.54;95353.97;5004884;28;20428;-84
2022/05/11 05:09:06;;;;;;;7.28;3.70;;;;;;;39.50;14.66;95347.03;5017258;28;20033;-85
2022/05/11 05:14:07;;;;;;;8.75;3.13;;;;;;;40.19;13.27;95343.09;5504857;22;20037;-86
2022/05/11 05:16:33;;;;;;;12.35;4.28;;;;;;;40.72;13.80;95341.59;5043542;28;20040;-87
2022/05/11 05:18:58;;;;;;;14.25;4.18;;;;;;;41.29;13.44;95346.09;5038638;28;20029;-86
2022/05/11 05:21:24;;;;;;;13.55;3.88;;;;;;;41.75;12.95;95347.22;5057243;28;20033;-86
2022/05/11 05:23:49;;;;;;;13.60;4.45;;;;;;;42.17;12.70;95354.56;5053949;28;20036;-85
2022/05/11 05:26:15;;;;;;;18.38;4.47;;;;;;;42.65;12.21;95344.91;5054255;28;20642;-85
2022/05/11 05:31:26;;;;;;;17.73;5.00;;;;;;;43.18;11.85;95361.22;5053102;28;20478;-84
2022/05/11 05:33:58;;;;;;;14.02;4.15;;;;;;;42.99;11.73;95360.91;5051358;28;20566;-84
2022/05/11 05:36:23;;;;;;;11.93;4.13;;;;;;;42.63;12.41;95357.44;5037703;28;20029;-81
2022/05/11 05:38:49;;;;;;;19.02;4.13;;;;;;;42.63;12.11;95363.69;5051136;28;20045;-80
2022/05/11 05:41:14;;;;;;;15.70;3.38;;;;;;;43.08;11.77;95360.28;5051634;28;20033;-81
2022/05/11 05:43:40;;;;;;;8.70;3.28;;;;;;;43.13;11.71;95367.97;5053343;28;20409;-86
2022/05/11 05:46:06;;;;;;;14.70;3.78;;;;;;;43.46;11.22;95368.72;5052547;28;20492;-84
2022/05/11 05:48:31;;;;;;;14.02;3.38;;;;;;;43.66;11.15;95365.81;5057926;28;20060;-86
2022/05/11 05:51:04;;;;;;;11.52;4.00;;;;;;;43.55;10.98;95371.56;5032123;28;20029;-87
2022/05/11 05:53:30;;;;;;;17.50;3.78;;;;;;;43.64;10.67;95379.94;5038384;28;20044;-87
2022/05/11 05:55:55;;;;;;;9.75;3.65;;;;;;;42.47;11.51;95382.78;5054158;28;20519;-88
2022/05/11 05:58:21;;;;;;;19.05;3.92;;;;;;;41.17;12.20;95387.63;5037874;28;20457;-85
2022/05/11 06:00:46;;;;;;;29.48;3.90;;;;;;;40.87;12.93;95372.94;5037090;28;20044;-85
2022/05/11 06:03:17;;;;;;;20.73;4.68;;;;;;;41.31;12.70;95377.25;5019135;28;20033;-86
2022/05/11 06:05:43;;;;;;;17.27;4.45;;;;;;;41.17;12.84;95384.88;5051656;28;20507;-86
2022/05/11 06:08:15;;;;;;;14.77;5.07;;;;;;;41.69;12.42;95387.91;5053119;28;20029;-85
2022/05/11 06:10:44;;;;;;;15.32;4.15;;;;;;;41.07;13.17;95390.13;5022470;28;20083;-86
2022/05/11 06:13:09;;;;;;;14.63;4.13;;;;;;;40.93;12.89;95389.59;5061263;28;20051;-85
2022/05/11 06:15:35;;;;;;;16.63;4.20;;;;;;;40.01;13.62;95388.88;5066756;28;20127;-85
2022/05/11 06:18:01;;;;;;;14.25;4.50;;;;;;;39.46;14.15;95396.06;5035519;28;20424;-86
2022/05/11 06:20:27;;;;;;;10.57;4.70;;;;;;;38.47;15.11;95388.66;5051920;28;20048;-85
2022/05/11 06:22:53;;;;;;;12.77;4.28;;;;;;;38.58;14.59;95392.88;5075152;28;20033;-83
2022/05/11 06:25:20;;;;;;;17.58;4.00;;;;;;;38.46;15.05;95393.34;5046627;28;20033;-82
2022/05/11 06:27:46;;;;;;;7.00;3.35;;;;;;;37.67;15.54;95395.56;5049469;28;20132;-83
2022/05/11 06:30:12;;;;;;;16.25;3.80;;;;;;;37.45;15.92;95394.09;5049637;28;20101;-84
2022/05/11 06:32:38;;;;;;;27.15;4.50;;;;;;;37.10;16.00;95394.84;5066940;28;20107;-83
2022/05/11 06:35:04;;;;;;;11.07;3.88;;;;;;;36.96;16.07;95391.00;5038474;28;20513;-84
2022/05/11 06:37:29;;;;;;;5.38;3.72;;;;;;;36.43;16.54;95398.25;5082690;28;20025;-87
2022/05/11 06:39:56;;;;;;;13.82;3.45;;;;;;;35.60;16.49;95389.00;5066710;28;20037;-85
2022/05/11 06:42:21;;;;;;;13.15;3.67;;;;;;;35.16;17.53;95392.59;5066819;28;20503;-82
2022/05/11 06:44:48;;;;;;;11.45;3.58;;;;;;;34.90;17.79;95395.47;5038547;28;20033;-79
2022/05/11 06:47:13;;;;;;;5.45;3.75;;;;;;;34.63;18.89;95391.34;5067871;28;20033;-86
2022/05/11 06:49:39;;;;;;;12.52;3.50;;;;;;;34.10;19.08;95395.03;5083613;28;20029;-84
2022/05/11 06:52:04;;;;;;;8.40;3.28;;;;;;;34.08;18.94;95394.63;5065892;28;20063;-86
2022/05/11 06:59:58;;;;;;;18.02;3.33;;;;;;;32.65;19.52;95389.03;5052482;28;20048;-86
2022/05/11 07:02:24;;;;;;;14.57;3.25;;;;;;;32.18;20.35;95384.69;5039723;28;20041;-84
2022/05/11 07:04:50;;;;;;;4.35;3.00;;;;;;;31.78;19.87;95387.78;5049011;28;20024;-85
2022/05/11 07:07:16;;;;;;;8.52;3.50;;;;;;;31.52;20.77;95388.34;5066010;28;20066;-84
2022/05/11 07:09:41;;;;;;;20.45;3.42;;;;;;;31.02;21.29;95383.72;5067049;28;20045;-86
2022/05/11 07:12:32;;;;;;;11.32;3.20;;;;;;;30.45;21.55;95388.47;5048216;28;20492;-86
2022/05/11 07:14:59;;;;;;;8.88;3.38;;;;;;;29.97;22.46;95384.09;5054167;28;20100;-86
2022/05/11 07:17:27;;;;;;;11.90;3.08;;;;;;;29.81;22.16;95381.34;5051603;28;20059;-87
2022/05/11 07:19:53;;;;;;;11.85;3.15;;;;;;;29.61;21.93;95382.28;5068518;28;20025;-87
2022/05/11 07:22:20;;;;;;;3.05;2.50;;;;;;;29.42;21.68;95379.41;5049477;28;20032;-87
2022/05/11 07:24:46;;;;;;;7.00;2.20;;;;;;;29.29;21.60;95382.13;5049306;28;20067;-86
2022/05/11 07:27:11;;;;;;;16.88;2.42;;;;;;;29.21;22.36;95372.28;5066666;28;20443;-85
2022/05/11 07:29:38;;;;;;;4.45;2.38;;;;;;;29.09;22.77;95361.59;5082785;28;20033;-85
2022/05/11 07:32:04;;;;;;;18.77;2.88;;;;;;;29.01;22.81;95365.19;5050132;28;20063;-86
2022/05/11 07:34:29;;;;;;;6.00;3.25;;;;;;;28.77;22.92;95368.59;5049833;28;20044;-86
2022/05/11 07:36:55;;;;;;;6.57;2.60;;;;;;;28.56;23.27;95374.03;5081440;28;20029;-85
2022/05/11 07:39:23;;;;;;;15.13;3.05;;;;;;;28.36;22.87;95372.22;5065908;28;20048;-86
2022/05/11 07:41:49;;;;;;;9.25;2.53;;;;;;;28.19;22.80;95378.50;5046814;28;20059;-85
2022/05/11 07:44:15;;;;;;;9.70;3.25;;;;;;;28.00;24.20;95370.19;5066003;28;20032;-85
2022/05/11 07:46:44;;;;;;;3.30;2.65;;;;;;;27.72;24.25;95360.06;5041879;28;20045;-84
2022/05/11 07:49:10;;;;;;;5.93;2.42;;;;;;;27.51;23.67;95359.25;5064914;28;20033;-86
2022/05/11 07:51:36;;;;;;;4.07;2.78;;;;;;;27.39;24.76;95357.28;5049338;28;20033;-86
2022/05/11 07:54:03;;;;;;;7.70;2.55;;;;;;;27.45;25.02;95355.97;5065378;28;20052;-86
2022/05/11 08:01:57;;;;;;;16.15;3.55;;;;;;;26.91;26.47;95357.72;5079723;28;20082;-84
2022/05/11 08:04:22;;;;;;;4.72;3.00;;;;;;;26.47;26.10;95359.78;5054836;28;20444;-86
2022/05/11 08:06:48;;;;;;;7.75;3.17;;;;;;;26.46;26.71;95355.53;5053583;28;20182;-86
2022/05/11 08:09:13;;;;;;;4.40;3.25;;;;;;;26.42;27.29;95351.19;5055133;28;20032;-86
2022/05/11 08:11:39;;;;;;;11.77;3.22;;;;;;;26.29;26.98;95347.56;5055665;28;20029;-86
2022/05/11 08:14:05;;;;;;;19.30;3.38;;;;;;;26.15;27.79;95352.31;5056032;28;20063;-83
2022/05/11 08:16:30;;;;;;;3.17;2.88;;;;;;;25.92;27.59;95343.75;5069402;28;20036;-87
2022/05/11 08:18:56;;;;;;;7.93;3.20;;;;;;;25.42;27.62;95339.66;5080271;28;20056;-86
2022/05/11 08:21:22;;;;;;;9.65;2.90;;;;;;;25.29;28.75;95347.78;5066258;28;20041;-87
2022/05/11 08:23:49;;;;;;;5.60;3.00;;;;;;;25.07;28.87;95341.50;5082752;28;20041;-86
2022/05/11 08:26:14;;;;;;;14.30;3.25;;;;;;;24.99;28.77;95331.59;5021814;28;20171;-87
2022/05/11 08:28:41;;;;;;;9.75;3.13;;;;;;;25.07;29.38;95338.06;5036097;28;20070;-86
2022/05/11 08:33:50;;;;;;;6.88;2.70;;;;;;;25.00;28.02;95329.72;5069838;28;20101;-85
2022/05/11 08:36:18;;;;;;;5.00;2.45;;;;;;;25.02;28.47;95332.88;5057364;28;20071;-86
2022/05/11 08:38:46;;;;;;;12.60;2.70;;;;;;;25.05;28.04;95327.69;5058044;28;20123;-86
2022/05/11 08:41:19;;;;;;;6.78;2.85;;;;;;;25.09;28.66;95335.88;5041692;28;20514;-86
2022/05/11 08:43:45;;;;;;;5.35;2.22;;;;;;;25.06;27.39;95329.28;5057161;28;20500;-86
2022/05/11 08:46:29;;;;;;;7.45;2.72;;;;;;;25.09;27.32;95339.31;5061538;28;20040;-86
2022/05/11 08:49:29;;;;;;;6.25;2.40;;;;;;;24.91;28.17;95332.38;5066024;28;20265;-84
2022/05/11 08:52:02;;;;;;;3.28;2.15;;;;;;;24.99;28.34;95328.13;5056261;28;20047;-86
2022/05/11 08:54:34;;;;;;;6.03;2.55;;;;;;;25.01;28.43;95328.63;5055594;28;20102;-86
2022/05/11 08:57:01;;;;;;;4.32;2.53;;;;;;;25.00;28.63;95325.19;5054300;28;20155;-81
2022/05/11 08:59:29;;;;;;;4.25;2.65;;;;;;;24.86;29.18;95324.50;5056101;28;20036;-85
2022/05/11 09:02:05;;;;;;;4.25;2.60;;;;;;;24.85;29.79;95333.59;5040312;28;20025;-86
2022/05/11 09:04:52;;;;;;;2.60;2.35;;;;;;;24.84;28.62;95332.78;5057377;28;20121;-86
2022/05/11 09:07:18;;;;;;;3.38;1.77;;;;;;;24.84;28.21;95332.00;5032728;28;20032;-86
2022/05/11 09:09:44;;;;;;;2.75;2.05;;;;;;;24.85;27.21;95334.38;5024068;28;20060;-87
2022/05/11 09:12:11;;;;;;;2.88;1.95;;;;;;;24.85;27.72;95337.03;5039587;28;20032;-85
2022/05/11 09:14:38;;;;;;;3.70;2.65;;;;;;;24.88;28.65;95324.97;5056789;28;20633;-85
2022/05/11 09:17:04;;;;;;;9.98;2.47;;;;;;;24.98;29.03;95326.56;5040355;28;20126;-85
2022/05/11 09:19:31;;;;;;;4.95;2.85;;;;;;;24.89;28.51;95328.41;5042255;28;20037;-86
2022/05/11 09:22:07;;;;;;;3.92;2.70;;;;;;;24.88;29.24;95324.19;5080553;28;20040;-88
2022/05/11 09:24:43;;;;;;;3.60;2.47;;;;;;;24.80;28.77;95310.56;5062930;28;20119;-84
2022/05/11 09:27:11;;;;;;;2.85;2.42;;;;;;;24.80;28.49;95321.22;5024361;28;20041;-79
2022/05/11 09:29:42;;;;;;;6.95;2.40;;;;;;;24.84;28.35;95324.81;5056556;28;20041;-78
2022/05/11 09:32:22;;;;;;;4.30;2.55;;;;;;;24.87;29.20;95320.75;5056673;28;20037;-80
2022/05/11 09:34:48;;;;;;;2.00;1.85;;;;;;;24.90;28.50;95320.16;5053143;28;20068;-80
2022/05/11 09:37:23;;;;;;;6.38;2.13;;;;;;;24.88;28.60;95317.00;5053073;28;20037;-82
2022/05/11 09:39:54;;;;;;;3.47;2.28;;;;;;;24.93;27.60;95316.88;5059218;28;20139;-79
2022/05/11 09:42:25;;;;;;;3.10;2.60;;;;;;;24.91;28.68;95315.63;5034827;28;20033;-80
2022/05/11 09:44:52;;;;;;;3.35;2.63;;;;;;;24.93;28.83;95318.75;5020488;28;20075;-80
2022/05/11 09:47:33;;;;;;;7.88;2.70;;;;;;;25.01;28.55;95316.13;5052629;28;20040;-79
2022/05/11 09:50:17;;;;;;;3.90;2.58;;;;;;;24.99;28.40;95312.97;5052943;28;20037;-80
2022/05/11 09:52:44;;;;;;;2.60;2.40;;;;;;;25.00;28.55;95303.91;5050678;28;20041;-79
2022/05/11 09:55:28;;;;;;;6.60;2.80;;;;;;;24.90;28.45;95304.19;5051789;28;20044;-79
2022/05/11 09:57:58;;;;;;;6.03;2.58;;;;;;;25.01;28.24;95300.16;5050887;28;20056;-78
2022/05/11 10:00:33;;;;;;;6.03;2.30;;;;;;;25.28;28.37;95303.63;5034692;28;20032;-79
2022/05/11 10:03:02;;;;;;;5.78;2.80;;;;;;;25.44;28.03;95291.41;5067881;28;20041;-79
2022/05/11 10:05:32;;;;;;;6.93;3.03;;;;;;;25.55;28.69;95287.34;5066931;28;20028;-79
2022/05/11 10:08:10;;;;;;;3.80;2.10;;;;;;;25.52;28.09;95284.50;5035973;28;20041;-79
2022/05/11 10:10:41;;;;;;;5.97;2.33;;;;;;;25.77;27.91;95289.06;5052468;28;20105;-80
2022/05/11 10:13:21;;;;;;;7.97;2.72;;;;;;;26.01;27.00;95285.84;5036240;28;20037;-80
2022/05/11 10:24:53;;;;;;;3.78;2.28;;;;;;;25.50;26.83;95284.81;5052579;28;20064;-80
2022/05/11 10:27:43;;;;;;;2.00;1.90;;;;;;;25.56;26.32;95272.94;5053662;28;20061;-80
2022/05/11 10:30:28;;;;;;;7.38;2.55;;;;;;;25.73;26.20;95278.25;5053841;28;20512;-80
2022/05/11 10:33:00;;;;;;;6.40;2.92;;;;;;;25.27;25.86;95281.56;5051702;28;20036;-79
2022/05/11 10:35:46;;;;;;;2.70;1.85;;;;;;;25.17;26.28;95281.06;5053558;28;20492;-79
2022/05/11 10:38:23;;;;;;;3.47;2.30;;;;;;;25.19;27.09;95278.88;5051665;28;20029;-80
2022/05/11 10:40:58;;;;;;;13.55;2.90;;;;;;;25.32;26.69;95277.94;5055151;28;20480;-80
2022/05/11 10:43:43;;;;;;;7.70;2.65;;;;;;;25.59;26.58;95271.50;5062061;28;20036;-80
2022/05/11 10:46:12;;;;;;;2.30;2.10;;;;;;;25.84;26.31;95272.59;5055764;28;20036;-79
2022/05/11 10:49:08;;;;;;;3.30;2.22;;;;;;;26.05;26.74;95273.50;5054594;28;20120;-78
2022/05/11 10:52:03;;;;;;;5.00;2.28;;;;;;;26.19;25.94;95278.59;5055389;28;20033;-79
2022/05/11 10:54:44;;;;;;;2.53;2.33;;;;;;;25.76;26.31;95270.72;5056356;28;20043;-79
2022/05/11 10:57:33;;;;;;;3.53;2.05;;;;;;;25.60;26.27;95279.19;4980120;22;20082;-79
2022/05/11 11:00:16;;;;;;;9.63;2.63;;;;;;;24.79;27.42;95281.63;5086384;28;20468;-77
2022/05/11 11:03:09;;;;;;;4.82;2.60;;;;;;;24.47;28.38;95280.91;5070566;28;20017;-80
2022/05/11 11:08:53;;;;;;;10.73;3.42;;;;;;;22.25;34.26;95287.53;5065306;28;20036;-79
2022/05/11 11:11:50;;;;;;;22.02;3.22;;;;;;;20.97;36.27;95315.16;5067813;28;20033;-79
2022/05/11 11:14:20;;;;;;;9.65;2.83;;;;;;;20.36;37.81;95297.41;5076358;28;20044;-79
2022/05/11 11:16:45;;;;;;;4.18;2.63;;;;;;;20.05;38.31;95307.47;5065620;28;20021;-79
2022/05/11 11:19:11;;;;;;;5.10;2.88;;;;;;;19.83;39.80;95307.16;5047894;28;20020;-77
2022/05/11 11:21:40;;;;;;;5.28;2.88;;;;;;;19.58;41.43;95330.03;5071693;28;20029;-77
2022/05/11 11:24:22;;;;;;;3.85;2.60;;;;;;;19.10;43.37;95319.25;5047519;28;20037;-81
2022/05/11 11:26:49;;;;;;;3.28;2.40;;;;;;;18.79;43.46;95320.47;5055341;28;20062;-80
2022/05/11 11:29:15;;;;;;;10.73;2.50;;;;;;;18.56;44.01;95324.50;5068049;28;20115;-80
2022/05/11 11:32:01;;;;;;;2.50;2.30;;;;;;;18.57;44.10;95318.94;5051887;28;20052;-80
2022/05/11 11:34:37;;;;;;;4.25;2.38;;;;;;;18.60;44.12;95315.78;5062352;28;20025;-80
2022/05/11 11:37:27;;;;;;;3.30;2.40;;;;;;;18.75;43.21;95314.97;5044445;28;20033;-79
2022/05/11 11:39:57;;;;;;;4.32;2.60;;;;;;;18.91;42.78;95318.31;5068423;28;20048;-80
2022/05/11 11:42:39;;;;;;;5.15;3.33;;;;;;;19.13;41.39;95313.44;5032065;28;20476;-80
2022/05/11 11:45:10;;;;;;;4.18;2.72;;;;;;;19.40;41.55;95320.91;5063686;28;20029;-80
2022/05/11 11:47:38;;;;;;;2.97;2.67;;;;;;;19.34;41.68;95323.84;5069305;28;20052;-79
2022/05/11 11:50:04;;;;;;;5.85;2.88;;;;;;;19.55;41.91;95329.81;5063220;28;20033;-80
2022/05/11 11:52:33;;;;;;;5.15;2.80;;;;;;;19.79;41.36;95322.75;5032267;28;20033;-80
2022/05/11 11:54:58;;;;;;;5.57;2.80;;;;;;;19.86;41.39;95320.59;5068516;28;20035;-80
2022/05/11 11:57:23;;;;;;;5.20;2.58;;;;;;;20.03;39.93;95309.63;5047985;28;20029;-80
2022/05/11 11:59:57;;;;;;;5.57;2.65;;;;;;;20.29;38.63;95324.13;5106114;23;20048;-78
2022/05/11 12:02:37;;;;;;;8.85;3.28;;;;;;;20.51;38.45;95325.53;5069537;28;20040;-78
2022/05/11 12:05:28;;;;;;;11.13;3.00;;;;;;;20.77;37.72;95312.78;5062105;28;20040;-78
2022/05/11 12:16:52;;;;;;;4.40;2.30;;;;;;;21.49;39.51;95329.31;5046229;28;20040;-78
2022/05/11 12:19:18;;;;;;;5.30;2.70;;;;;;;21.28;39.47;95332.22;5034080;28;20049;-77
2022/05/11 12:21:56;;;;;;;13.18;3.00;;;;;;;21.30;40.26;95329.28;5042326;28;20032;-77
2022/05/11 12:24:33;;;;;;;13.50;2.35;;;;;;;21.30;39.75;95323.22;5043175;28;20539;-78
2022/05/11 12:27:02;;;;;;;4.47;2.95;;;;;;;21.35;40.13;95318.66;5059585;28;20064;-78